Time;durP1;ratioP1;P1;durP2;ratioP2;P2;SDS_P1;SDS_P2;PMS_P1;PMS_P2;Temp;Humidity;BMP_temperature;BMP_pressure;BME280_temperature;BME280_humidity;BME280_pressure;Samples;Min_cycle;Max_cycle;Signal;HPM_P1;HPM_P2
2021/10/18 00:00:59;;;;;;;0.20;0.20;;;;;;;7.74;100.00;101524.38;5028034;28;20054;-84
2021/10/18 00:03:27;;;;;;;0.10;0.10;;;;;;;7.78;100.00;101529.06;5008769;28;20054;-85
2021/10/18 00:06:01;;;;;;;0.20;0.20;;;;;;;7.78;100.00;101531.78;5010507;28;20071;-85
2021/10/18 00:08:34;;;;;;;0.20;0.20;;;;;;;7.81;100.00;101530.47;5012644;28;20042;-84
2021/10/18 00:11:07;;;;;;;0.20;0.20;;;;;;;7.96;100.00;101527.25;5011913;28;20415;-83
2021/10/18 00:13:41;;;;;;;0.20;0.20;;;;;;;7.87;100.00;101532.25;5009829;28;20064;-84
2021/10/18 00:16:15;;;;;;;0.10;0.10;;;;;;;7.89;100.00;101519.25;5012431;28;20041;-85
2021/10/18 00:18:48;;;;;;;0.20;0.20;;;;;;;7.89;100.00;101523.88;5009501;28;20053;-84
2021/10/18 00:21:21;;;;;;;0.20;0.20;;;;;;;7.79;100.00;101516.38;5007725;28;20392;-85
2021/10/18 00:23:49;;;;;;;0.30;0.30;;;;;;;7.81;100.00;101525.88;5002333;28;20061;-85
2021/10/18 00:26:18;;;;;;;0.20;0.20;;;;;;;7.83;100.00;101525.66;5008259;28;20042;-86
2021/10/18 00:28:52;;;;;;;0.20;0.20;;;;;;;7.87;100.00;101513.28;5008672;28;20513;-85
2021/10/18 00:31:25;;;;;;;0.20;0.20;;;;;;;7.84;100.00;101513.72;5010698;28;20045;-85
2021/10/18 00:33:54;;;;;;;0.20;0.20;;;;;;;7.86;100.00;101513.50;5004298;28;20042;-85
2021/10/18 00:36:22;;;;;;;0.30;0.30;;;;;;;7.86;100.00;101519.75;5023220;28;20046;-85
2021/10/18 00:38:55;;;;;;;0.20;0.20;;;;;;;7.96;100.00;101508.28;5010576;28;20053;-84
2021/10/18 00:41:24;;;;;;;0.20;0.20;;;;;;;7.99;100.00;101513.22;5010406;28;20049;-85
2021/10/18 00:43:59;;;;;;;0.22;0.22;;;;;;;7.94;100.00;101505.81;5019574;28;20410;-84
2021/10/18 00:46:32;;;;;;;0.20;0.20;;;;;;;8.06;100.00;101523.91;5012930;28;20463;-84
2021/10/18 00:49:00;;;;;;;0.20;0.20;;;;;;;7.99;100.00;101535.72;5009735;28;20057;-84
2021/10/18 00:51:34;;;;;;;0.20;0.20;;;;;;;7.94;100.00;101532.06;5010028;28;20426;-84
2021/10/18 00:54:07;;;;;;;0.20;0.20;;;;;;;8.00;100.00;101528.41;5011763;28;20413;-85
2021/10/18 00:56:41;;;;;;;0.20;0.20;;;;;;;7.97;100.00;101532.44;5023749;28;20417;-83
2021/10/18 00:59:15;;;;;;;0.20;0.20;;;;;;;7.96;100.00;101547.03;5010782;28;20054;-84
2021/10/18 01:01:51;;;;;;;0.20;0.20;;;;;;;7.99;100.00;101535.72;5007693;28;20046;-82
2021/10/18 01:04:20;;;;;;;0.20;0.20;;;;;;;8.07;100.00;101537.22;5011337;28;20045;-83
2021/10/18 01:06:49;;;;;;;0.20;0.20;;;;;;;8.08;100.00;101536.16;5012159;28;20403;-85
2021/10/18 01:09:23;;;;;;;0.20;0.20;;;;;;;8.01;100.00;101535.50;5011358;28;20391;-83
2021/10/18 01:11:52;;;;;;;0.20;0.20;;;;;;;8.10;100.00;101527.78;5028640;28;20073;-84
2021/10/18 01:14:27;;;;;;;0.20;0.20;;;;;;;8.04;100.00;101529.59;5021800;28;20053;-84
2021/10/18 01:17:00;;;;;;;0.20;0.20;;;;;;;8.07;100.00;101531.81;5009336;28;20394;-85
2021/10/18 01:19:33;;;;;;;0.30;0.30;;;;;;;8.07;100.00;101531.81;5016141;28;20044;-85
2021/10/18 01:22:08;;;;;;;0.20;0.20;;;;;;;8.06;100.00;101535.56;5007846;28;21737;-84
2021/10/18 01:24:41;;;;;;;0.28;0.28;;;;;;;8.11;100.00;101534.88;5009243;28;20057;-83
2021/10/18 01:27:14;;;;;;;0.20;0.20;;;;;;;8.13;100.00;101524.59;5012623;28;20045;-84
2021/10/18 01:29:48;;;;;;;0.10;0.10;;;;;;;8.11;100.00;101524.84;5011288;28;20050;-84
2021/10/18 01:32:21;;;;;;;0.20;0.20;;;;;;;8.10;100.00;101525.88;5024501;28;20572;-84
2021/10/18 01:34:54;;;;;;;0.20;0.20;;;;;;;8.10;100.00;101525.88;5011192;28;20379;-84
2021/10/18 01:37:29;;;;;;;0.20;0.20;;;;;;;8.15;100.00;101519.75;5009317;28;20038;-84
2021/10/18 01:40:04;;;;;;;0.20;0.20;;;;;;;8.13;100.00;101519.16;5010142;28;20624;-83
2021/10/18 01:42:38;;;;;;;0.20;0.20;;;;;;;8.11;100.00;101514.00;5008060;28;20041;-84
2021/10/18 01:45:14;;;;;;;0.30;0.30;;;;;;;8.13;100.00;101514.59;5010562;28;20430;-84
2021/10/18 01:47:48;;;;;;;0.20;0.20;;;;;;;8.02;100.00;101509.19;5021060;28;20050;-85
2021/10/18 01:50:23;;;;;;;0.20;0.20;;;;;;;8.04;100.00;101513.31;5005326;28;20494;-84
2021/10/18 01:52:58;;;;;;;0.20;0.20;;;;;;;7.91;100.00;101508.19;5005490;28;20049;-84
2021/10/18 01:55:32;;;;;;;0.20;0.20;;;;;;;7.93;100.00;101508.78;5009850;28;20045;-83
2021/10/18 01:58:00;;;;;;;0.20;0.20;;;;;;;7.98;100.00;101506.97;5007233;28;20037;-85
2021/10/18 02:00:34;;;;;;;0.20;0.20;;;;;;;7.90;100.00;101509.22;5008003;28;20049;-85
2021/10/18 02:03:02;;;;;;;0.20;0.20;;;;;;;7.78;100.00;101498.44;5008322;28;20510;-84
2021/10/18 02:05:35;;;;;;;0.20;0.20;;;;;;;8.03;100.00;101505.44;5008481;28;20057;-85
2021/10/18 02:08:10;;;;;;;0.20;0.20;;;;;;;7.95;100.00;101504.72;5014067;28;20046;-84
2021/10/18 02:10:43;;;;;;;0.20;0.20;;;;;;;7.92;100.00;101507.13;5010539;28;20409;-84
2021/10/18 02:13:16;;;;;;;0.20;0.20;;;;;;;7.97;100.00;101502.63;5013861;28;20046;-84
2021/10/18 02:15:49;;;;;;;0.20;0.20;;;;;;;7.85;100.00;101501.84;5009067;28;20045;-84
2021/10/18 02:18:17;;;;;;;0.25;0.25;;;;;;;7.93;100.00;101497.94;5011318;28;20046;-85
2021/10/18 02:20:59;;;;;;;0.20;0.20;;;;;;;7.80;100.00;101505.28;5005503;28;20058;-84
2021/10/18 02:23:33;;;;;;;0.20;0.20;;;;;;;7.76;100.00;101492.44;5024093;28;20069;-85
2021/10/18 02:26:06;;;;;;;0.20;0.20;;;;;;;7.60;100.00;101475.88;5022954;28;20050;-84
2021/10/18 02:28:40;;;;;;;0.20;0.20;;;;;;;7.72;100.00;101492.13;5025959;28;20053;-85
2021/10/18 02:31:13;;;;;;;0.30;0.30;;;;;;;7.76;100.00;101495.16;5003039;28;20068;-84
2021/10/18 02:33:46;;;;;;;0.20;0.20;;;;;;;7.81;100.00;101495.25;5011573;28;20050;-85
2021/10/18 02:36:19;;;;;;;0.20;0.20;;;;;;;7.85;100.00;101496.41;5005300;28;20053;-83
2021/10/18 02:38:49;;;;;;;0.20;0.20;;;;;;;7.74;100.00;101498.09;5007905;28;20046;-84
2021/10/18 02:41:23;;;;;;;0.20;0.20;;;;;;;7.82;100.00;101497.72;5003453;28;20410;-84
2021/10/18 02:43:51;;;;;;;0.20;0.20;;;;;;;7.84;100.00;101500.19;5008325;28;20046;-84
2021/10/18 02:46:24;;;;;;;0.20;0.20;;;;;;;7.76;100.00;101495.16;5010089;28;20046;-83
2021/10/18 02:48:52;;;;;;;0.20;0.20;;;;;;;7.79;100.00;101500.09;5009696;28;20049;-85
2021/10/18 02:51:20;;;;;;;0.20;0.20;;;;;;;7.72;100.00;101491.28;5008672;28;20045;-85
2021/10/18 02:53:55;;;;;;;0.22;0.22;;;;;;;7.70;100.00;101494.22;5026159;28;20065;-84
2021/10/18 02:56:28;;;;;;;0.20;0.20;;;;;;;7.72;100.00;101499.41;5006611;28;20498;-84
2021/10/18 02:59:01;;;;;;;0.20;0.20;;;;;;;7.72;100.00;101508.38;5020953;28;20518;-85
2021/10/18 03:01:36;;;;;;;0.20;0.20;;;;;;;7.77;100.00;101507.63;5009354;28;20042;-84
2021/10/18 03:04:05;;;;;;;0.20;0.20;;;;;;;7.82;100.00;101510.47;5011110;28;20058;-84
2021/10/18 03:06:33;;;;;;;0.20;0.20;;;;;;;7.72;100.00;101513.78;5026863;28;20061;-84
2021/10/18 03:09:03;;;;;;;0.20;0.20;;;;;;;7.68;100.00;101504.50;5011089;28;20054;-84
2021/10/18 03:11:36;;;;;;;0.20;0.20;;;;;;;7.62;100.00;101506.28;5014536;28;20042;-84
2021/10/18 03:14:09;;;;;;;0.20;0.20;;;;;;;7.62;100.00;101505.44;5018595;28;20060;-85
2021/10/18 03:16:42;;;;;;;0.20;0.20;;;;;;;7.61;100.00;101512.75;5014927;28;20053;-84
2021/10/18 03:19:16;;;;;;;0.20;0.20;;;;;;;7.62;100.00;101518.97;5006943;28;20050;-83
2021/10/18 03:21:44;;;;;;;0.20;0.20;;;;;;;7.69;100.00;101510.72;5012913;28;20042;-86
2021/10/18 03:24:18;;;;;;;0.20;0.20;;;;;;;7.66;100.00;101515.56;5008486;28;20946;-86
2021/10/18 03:26:51;;;;;;;0.20;0.20;;;;;;;7.78;100.00;101509.28;5012779;28;20054;-85
2021/10/18 03:29:26;;;;;;;0.20;0.20;;;;;;;7.66;100.00;101515.56;5005307;28;20050;-86
2021/10/18 03:32:00;;;;;;;0.20;0.20;;;;;;;7.66;100.00;101509.31;5010851;28;20053;-85
2021/10/18 03:34:33;;;;;;;0.30;0.30;;;;;;;7.60;100.00;101524.63;5004515;28;20082;-85
2021/10/18 03:37:01;;;;;;;0.20;0.20;;;;;;;7.62;100.00;101518.97;5009923;28;20050;-86
2021/10/18 03:39:31;;;;;;;0.25;0.25;;;;;;;7.51;100.00;101512.53;5010439;28;20551;-85
2021/10/18 03:41:59;;;;;;;0.30;0.30;;;;;;;7.51;100.00;101525.25;5011254;28;20041;-86
2021/10/18 03:44:34;;;;;;;0.10;0.10;;;;;;;7.56;100.00;101515.34;5024854;28;20513;-86
2021/10/18 03:47:07;;;;;;;0.20;0.20;;;;;;;7.77;100.00;101511.16;5027569;28;20069;-85
2021/10/18 03:49:35;;;;;;;0.20;0.20;;;;;;;7.70;100.00;101524.03;5012413;28;20046;-85
2021/10/18 03:52:04;;;;;;;0.20;0.20;;;;;;;7.71;100.00;101519.44;5007728;28;20046;-85
2021/10/18 03:54:38;;;;;;;0.20;0.20;;;;;;;7.72;100.00;101516.50;5007945;28;20053;-86
2021/10/18 03:57:12;;;;;;;0.22;0.22;;;;;;;7.61;100.00;101528.16;5012129;28;20409;-85
2021/10/18 03:59:45;;;;;;;0.20;0.20;;;;;;;7.75;100.00;101526.03;5024091;28;20054;-85
2021/10/18 04:02:14;;;;;;;0.20;0.20;;;;;;;7.74;100.00;101524.38;5011409;28;20057;-86
2021/10/18 04:04:49;;;;;;;0.20;0.20;;;;;;;7.61;100.00;101520.03;5009400;28;20062;-86
2021/10/18 04:07:17;;;;;;;0.20;0.20;;;;;;;7.59;100.00;101527.59;5011363;28;20046;-86
2021/10/18 04:09:51;;;;;;;0.30;0.30;;;;;;;7.64;100.00;101520.38;5009846;28;20053;-86
2021/10/18 04:12:24;;;;;;;0.20;0.20;;;;;;;7.59;100.00;101524.88;5010327;28;20046;-85
2021/10/18 04:14:58;;;;;;;0.20;0.20;;;;;;;7.73;100.00;101523.53;5010548;28;20053;-85
2021/10/18 04:17:31;;;;;;;0.20;0.20;;;;;;;7.63;100.00;101520.63;5016014;28;20042;-86
2021/10/18 04:20:06;;;;;;;0.20;0.20;;;;;;;7.68;100.00;101528.88;5009253;28;20046;-86
2021/10/18 04:22:34;;;;;;;0.20;0.20;;;;;;;7.63;100.00;101528.75;5011525;28;20713;-85
2021/10/18 04:25:09;;;;;;;0.20;0.20;;;;;;;7.63;100.00;101526.88;5022645;28;20418;-84
2021/10/18 04:27:43;;;;;;;0.20;0.20;;;;;;;7.65;100.00;101524.75;5012103;28;20044;-84
2021/10/18 04:30:12;;;;;;;0.20;0.20;;;;;;;7.53;100.00;101531.28;5026040;28;20057;-86
2021/10/18 04:32:45;;;;;;;0.20;0.20;;;;;;;7.50;100.00;101529.84;5009000;28;20050;-86
2021/10/18 04:35:20;;;;;;;0.20;0.20;;;;;;;7.57;100.00;101527.84;5012413;28;20057;-85
2021/10/18 04:37:53;;;;;;;0.20;0.20;;;;;;;7.42;100.00;101531.03;5011021;28;20038;-85
2021/10/18 04:40:28;;;;;;;0.20;0.20;;;;;;;7.56;100.00;101533.50;5012062;28;20046;-85
2021/10/18 04:42:56;;;;;;;0.20;0.20;;;;;;;7.45;100.00;101535.16;5023018;28;20053;-85
2021/10/18 04:45:31;;;;;;;0.20;0.20;;;;;;;7.36;100.00;101521.16;5011136;28;20046;-85
2021/10/18 04:48:05;;;;;;;0.20;0.20;;;;;;;7.23;100.00;101527.63;5025003;28;20404;-85
2021/10/18 04:50:39;;;;;;;0.20;0.20;;;;;;;7.21;100.00;101532.47;5019001;28;20061;-85
2021/10/18 04:53:12;;;;;;;0.10;0.10;;;;;;;7.09;100.00;101526.25;5010571;28;20517;-85
2021/10/18 04:55:46;;;;;;;0.15;0.15;;;;;;;7.17;100.00;101533.16;5009139;28;20042;-86
2021/10/18 04:58:19;;;;;;;0.20;0.20;;;;;;;7.15;100.00;101536.94;5025707;28;20050;-84
2021/10/18 05:00:56;;;;;;;0.20;0.20;;;;;;;7.24;100.00;101533.88;5019425;28;20050;-85
2021/10/18 05:03:29;;;;;;;0.20;0.20;;;;;;;7.13;100.00;101532.84;5010586;28;20061;-86
2021/10/18 05:06:03;;;;;;;0.20;0.20;;;;;;;7.14;100.00;101538.00;5010071;28;20384;-85
2021/10/18 05:08:36;;;;;;;0.25;0.25;;;;;;;7.12;100.00;101540.09;5012023;28;20041;-85
2021/10/18 05:11:11;;;;;;;0.20;0.20;;;;;;;7.13;100.00;101525.53;5009445;28;20034;-86
2021/10/18 05:13:44;;;;;;;0.20;0.20;;;;;;;7.07;100.00;101547.28;5011827;28;20041;-85
2021/10/18 05:16:17;;;;;;;0.20;0.20;;;;;;;7.08;100.00;101543.53;5008702;28;20054;-86
2021/10/18 05:18:50;;;;;;;0.20;0.20;;;;;;;7.13;100.00;101551.78;5012603;28;20042;-85
2021/10/18 05:21:24;;;;;;;0.20;0.20;;;;;;;7.07;100.00;101556.25;5006737;28;20053;-85
2021/10/18 05:23:52;;;;;;;0.20;0.20;;;;;;;7.14;100.00;101554.25;5007868;28;20046;-85
2021/10/18 05:26:27;;;;;;;0.25;0.25;;;;;;;7.15;100.00;101557.75;5010481;28;20046;-86
2021/10/18 05:28:55;;;;;;;0.20;0.20;;;;;;;7.17;100.00;101552.13;5009969;28;20049;-85
2021/10/18 05:31:28;;;;;;;0.20;0.20;;;;;;;7.23;100.00;101551.19;5009680;28;20037;-85
2021/10/18 05:34:02;;;;;;;0.20;0.20;;;;;;;7.27;100.00;101547.75;5023157;28;20057;-86
2021/10/18 05:36:35;;;;;;;0.20;0.20;;;;;;;7.30;100.00;101552.69;5009984;28;20038;-86
2021/10/18 05:39:08;;;;;;;0.28;0.28;;;;;;;7.24;100.00;101547.44;5016739;28;20065;-85
2021/10/18 05:41:38;;;;;;;0.20;0.20;;;;;;;7.27;100.00;101563.19;5008852;28;20053;-85
2021/10/18 05:44:11;;;;;;;0.20;0.20;;;;;;;7.32;100.00;101564.13;5016117;28;20057;-85
2021/10/18 05:46:45;;;;;;;0.20;0.20;;;;;;;7.35;100.00;101560.13;5011470;28;20148;-85
2021/10/18 05:49:19;;;;;;;0.20;0.20;;;;;;;7.34;100.00;101560.38;5009539;28;20037;-86
2021/10/18 05:51:52;;;;;;;0.10;0.10;;;;;;;7.31;100.00;101567.88;5019106;28;20057;-86
2021/10/18 05:54:25;;;;;;;0.15;0.15;;;;;;;7.47;100.00;101565.53;5006792;28;20061;-85
2021/10/18 05:57:00;;;;;;;0.20;0.20;;;;;;;7.40;100.00;101579.22;5005585;28;20070;-86
2021/10/18 05:59:28;;;;;;;0.10;0.10;;;;;;;7.38;100.00;101577.78;5016060;28;20438;-86
2021/10/18 06:02:01;;;;;;;0.20;0.20;;;;;;;7.38;100.00;101575.09;5002582;28;20035;-85
2021/10/18 06:04:37;;;;;;;0.20;0.20;;;;;;;7.44;100.00;101580.38;4998882;28;20039;-85
2021/10/18 06:07:10;;;;;;;0.20;0.20;;;;;;;7.54;100.00;101571.66;5020718;28;20505;-86
2021/10/18 06:09:43;;;;;;;0.20;0.20;;;;;;;7.61;100.00;101579.63;5004998;28;20053;-84
2021/10/18 06:12:17;;;;;;;0.20;0.20;;;;;;;7.60;100.00;101583.44;5020714;28;20042;-85
2021/10/18 06:14:51;;;;;;;0.22;0.22;;;;;;;7.70;100.00;101577.41;5004230;28;20045;-85
2021/10/18 06:17:24;;;;;;;0.13;0.13;;;;;;;7.73;100.00;101576.91;4998480;28;20049;-85
2021/10/18 06:19:57;;;;;;;0.20;0.20;;;;;;;7.82;100.00;101572.78;5024776;28;20498;-85
2021/10/18 06:22:32;;;;;;;0.20;0.20;;;;;;;7.97;100.00;101564.16;5012114;28;20712;-86
2021/10/18 06:25:06;;;;;;;0.20;0.20;;;;;;;7.99;100.00;101579.09;5006685;28;20701;-83
2021/10/18 06:27:41;;;;;;;0.20;0.20;;;;;;;7.99;100.00;101578.25;5003420;28;20053;-86
2021/10/18 06:30:14;;;;;;;0.20;0.20;;;;;;;8.06;100.00;101578.94;5002687;28;20486;-85
2021/10/18 06:32:47;;;;;;;0.20;0.20;;;;;;;8.17;100.00;101571.84;5018268;28;20051;-83
2021/10/18 06:35:20;;;;;;;0.20;0.20;;;;;;;8.20;100.00;101570.53;5004459;28;20054;-85
2021/10/18 06:37:53;;;;;;;0.20;0.20;;;;;;;8.23;100.00;101570.03;5004002;28;20534;-84
2021/10/18 06:40:27;;;;;;;0.20;0.20;;;;;;;8.34;100.00;101582.72;5009884;28;20046;-87
2021/10/18 06:43:02;;;;;;;0.20;0.20;;;;;;;8.37;100.00;101584.13;5004118;28;20048;-86
2021/10/18 06:45:35;;;;;;;0.20;0.20;;;;;;;8.44;100.00;101598.41;5010369;28;20050;-85
2021/10/18 06:48:10;;;;;;;0.20;0.20;;;;;;;8.44;100.00;101601.91;5007492;28;20113;-85
2021/10/18 06:50:45;;;;;;;0.20;0.20;;;;;;;8.46;100.00;101602.53;5004471;28;20042;-86
2021/10/18 06:53:20;;;;;;;0.20;0.20;;;;;;;8.52;100.00;101608.88;5018390;28;20117;-86
2021/10/18 06:55:53;;;;;;;0.30;0.30;;;;;;;8.48;100.00;101613.97;5018318;28;20050;-86
2021/10/18 06:58:22;;;;;;;0.17;0.17;;;;;;;8.48;100.00;101613.97;5003494;28;20985;-84
2021/10/18 07:00:52;;;;;;;0.15;0.15;;;;;;;8.56;100.00;101615.47;5008606;28;20061;-84
2021/10/18 07:03:25;;;;;;;0.30;0.30;;;;;;;8.62;100.00;101619.09;5005852;28;20050;-83
2021/10/18 07:06:01;;;;;;;0.30;0.30;;;;;;;8.63;100.00;101616.16;5005397;28;20053;-85
2021/10/18 07:08:35;;;;;;;0.20;0.20;;;;;;;8.66;100.00;101622.97;5002953;28;20062;-82
2021/10/18 07:11:09;;;;;;;0.20;0.20;;;;;;;8.71;100.00;101620.34;5004631;28;20054;-83
2021/10/18 07:13:45;;;;;;;0.20;0.20;;;;;;;8.76;100.00;101620.44;5005546;28;20496;-82
2021/10/18 07:16:19;;;;;;;0.20;0.20;;;;;;;8.88;100.00;101617.66;5004178;28;20066;-83
2021/10/18 07:18:52;;;;;;;0.20;0.20;;;;;;;8.83;100.00;101623.81;5003993;28;20679;-84
2021/10/18 07:21:21;;;;;;;0.20;0.20;;;;;;;8.95;100.00;101618.31;5021724;28;20061;-83
2021/10/18 07:23:56;;;;;;;0.28;0.28;;;;;;;8.81;100.00;101625.13;5007724;28;20050;-81
2021/10/18 07:26:30;;;;;;;0.20;0.20;;;;;;;8.89;100.00;101624.72;5007383;28;20046;-83
2021/10/18 07:29:04;;;;;;;0.20;0.20;;;;;;;9.00;100.00;101620.28;5003561;28;20060;-85
2021/10/18 07:31:39;;;;;;;0.20;0.20;;;;;;;9.00;100.00;101626.56;5001976;28;20050;-84
2021/10/18 07:34:16;;;;;;;0.10;0.10;;;;;;;9.06;100.00;101632.06;5005076;28;20046;-84
2021/10/18 07:36:49;;;;;;;0.20;0.20;;;;;;;9.10;100.00;101625.06;5001209;28;20057;-81
2021/10/18 07:39:24;;;;;;;0.20;0.20;;;;;;;9.18;100.00;101630.94;4993635;28;20054;-82
2021/10/18 07:41:58;;;;;;;0.20;0.20;;;;;;;9.16;100.00;101629.53;5021351;28;20054;-84
2021/10/18 07:44:29;;;;;;;0.20;0.20;;;;;;;9.13;100.00;101630.03;4999980;28;20592;-84
2021/10/18 07:47:02;;;;;;;0.20;0.20;;;;;;;9.14;100.00;101631.66;4994616;28;20046;-84
2021/10/18 07:49:35;;;;;;;0.20;0.20;;;;;;;9.21;100.00;101635.03;5000002;28;20046;-82
2021/10/18 07:52:11;;;;;;;0.20;0.20;;;;;;;9.23;100.00;101634.78;4987285;28;20050;-85
2021/10/18 07:54:50;;;;;;;0.20;0.20;;;;;;;9.17;100.00;101632.00;4990618;28;20663;-82
2021/10/18 07:57:23;;;;;;;0.20;0.20;;;;;;;9.17;100.00;101647.47;4992712;28;20413;-83
2021/10/18 07:59:52;;;;;;;0.20;0.20;;;;;;;9.19;100.00;101651.56;5000473;28;20064;-82
2021/10/18 08:02:20;;;;;;;0.20;0.20;;;;;;;9.26;100.00;101650.59;4990840;28;20038;-82
2021/10/18 08:04:55;;;;;;;0.20;0.20;;;;;;;9.49;100.00;101655.03;4996896;28;20065;-82
2021/10/18 08:07:31;;;;;;;0.20;0.20;;;;;;;9.40;100.00;101651.88;4994015;28;20057;-79
2021/10/18 08:10:08;;;;;;;0.30;0.30;;;;;;;9.42;100.00;101649.75;4997897;28;20049;-86
2021/10/18 08:12:43;;;;;;;0.20;0.20;;;;;;;9.43;100.00;101647.84;5000200;28;20308;-83
2021/10/18 08:15:18;;;;;;;0.20;0.20;;;;;;;9.43;100.00;101653.28;4997880;28;20046;-83
2021/10/18 08:17:52;;;;;;;0.20;0.20;;;;;;;9.50;100.00;101653.94;4996388;28;20056;-85
2021/10/18 08:20:25;;;;;;;0.20;0.20;;;;;;;9.53;100.00;101654.28;4996960;28;20073;-82
2021/10/18 08:22:58;;;;;;;0.17;0.17;;;;;;;9.70;100.00;101656.97;4990812;28;20060;-83
2021/10/18 08:25:31;;;;;;;0.13;0.13;;;;;;;9.68;100.00;101656.41;4997851;28;20041;-85
2021/10/18 08:28:05;;;;;;;0.17;0.17;;;;;;;9.70;100.00;101662.41;4996377;28;20065;-84
2021/10/18 08:30:40;;;;;;;0.20;0.20;;;;;;;9.68;100.00;101656.41;4994355;28;20064;-84
2021/10/18 08:33:13;;;;;;;0.28;0.28;;;;;;;9.68;100.00;101663.72;4995479;28;20058;-84
2021/10/18 08:35:47;;;;;;;0.20;0.20;;;;;;;9.72;100.00;101664.84;4995141;28;20064;-84
2021/10/18 08:38:36;;;;;;;0.20;0.20;;;;;;;9.78;100.00;101658.44;5018534;28;20057;-84
2021/10/18 08:41:12;;;;;;;0.20;0.20;;;;;;;9.86;100.00;101660.72;4996269;28;20046;-82
2021/10/18 08:46:47;;;;;;;0.30;0.30;;;;;;;10.00;100.00;101663.09;4980156;28;20518;-82
2021/10/18 08:49:21;;;;;;;0.20;0.20;;;;;;;10.04;100.00;101665.03;5002029;28;20061;-83
2021/10/18 08:51:55;;;;;;;0.20;0.20;;;;;;;10.01;100.00;101665.56;4989726;28;20064;-83
2021/10/18 08:54:28;;;;;;;0.20;0.20;;;;;;;10.05;100.00;101665.84;4985815;28;20054;-83
2021/10/18 08:56:58;;;;;;;0.20;0.20;;;;;;;10.16;100.00;101658.66;4985398;28;20426;-82
2021/10/18 08:59:31;;;;;;;0.28;0.28;;;;;;;10.16;100.00;101655.94;4991661;28;20072;-83
2021/10/18 09:02:04;;;;;;;0.20;0.20;;;;;;;10.30;100.00;101665.38;4993859;28;21443;-81
2021/10/18 09:04:40;;;;;;;0.20;0.20;;;;;;;10.32;100.00;101663.22;5002500;28;20401;-83
2021/10/18 09:07:16;;;;;;;0.20;0.20;;;;;;;10.50;100.00;101659.38;4989924;28;20073;-84
2021/10/18 09:09:51;;;;;;;0.20;0.20;;;;;;;10.44;100.00;101663.13;4991760;28;20054;-83
2021/10/18 09:12:27;;;;;;;0.28;0.28;;;;;;;10.47;100.00;101676.22;4996965;28;20050;-84
2021/10/18 09:15:18;;;;;;;0.20;0.20;;;;;;;10.51;100.00;101669.19;4992662;28;20489;-81
2021/10/18 09:17:57;;;;;;;0.20;0.20;;;;;;;10.58;100.00;101682.59;5001634;28;20050;-81
2021/10/18 09:20:32;;;;;;;0.20;0.20;;;;;;;10.70;100.00;101688.72;4999896;28;20052;-82
2021/10/18 09:23:24;;;;;;;0.10;0.10;;;;;;;10.77;100.00;101680.34;4991137;28;20120;-83
2021/10/18 09:26:00;;;;;;;0.22;0.22;;;;;;;10.87;100.00;101682.34;4994315;28;20050;-84
2021/10/18 09:28:34;;;;;;;0.20;0.20;;;;;;;10.88;100.00;101678.53;5012345;28;20057;-83
2021/10/18 09:31:16;;;;;;;0.20;0.20;;;;;;;10.95;100.00;101691.94;5000103;28;20049;-82
2021/10/18 09:33:56;;;;;;;0.20;0.20;;;;;;;11.08;100.00;101688.81;4993628;28;20058;-82
2021/10/18 09:36:30;;;;;;;0.20;0.20;;;;;;;10.99;100.00;101685.75;5009490;28;20057;-84
2021/10/18 09:39:15;;;;;;;0.20;0.20;;;;;;;11.01;100.00;101682.75;4991024;28;20049;-83
2021/10/18 09:41:57;;;;;;;0.20;0.20;;;;;;;11.06;100.00;101683.63;4997324;28;20073;-81
2021/10/18 09:44:46;;;;;;;0.13;0.13;;;;;;;11.14;100.00;101686.94;5006391;28;20053;-83
2021/10/18 09:48:00;;;;;;;0.20;0.20;;;;;;;11.04;100.00;101693.13;4995453;28;20070;-83
2021/10/18 10:51:31;;;;;;;0.20;0.20;;;;;;;11.70;100.00;101683.84;4990922;28;20050;-81
2021/10/18 10:54:06;;;;;;;0.20;0.20;;;;;;;11.71;100.00;101678.13;4991684;28;20058;-83
2021/10/18 10:56:45;;;;;;;0.20;0.20;;;;;;;11.77;100.00;101692.63;4998019;28;20061;-81
2021/10/18 10:59:22;;;;;;;0.20;0.20;;;;;;;11.73;100.00;101684.13;4993818;28;20769;-81
2021/10/18 11:01:59;;;;;;;0.20;0.20;;;;;;;11.75;100.00;101678.41;5009940;28;20072;-82
2021/10/18 11:04:48;;;;;;;0.10;0.10;;;;;;;11.82;100.00;101673.56;4992844;28;20062;-82
2021/10/18 11:07:41;;;;;;;0.10;0.10;;;;;;;11.84;100.00;101665.13;4996534;28;21939;-82
2021/10/18 11:10:22;;;;;;;0.20;0.20;;;;;;;11.90;100.00;101664.03;4996753;28;21364;-83
2021/10/18 11:13:08;;;;;;;0.20;0.20;;;;;;;11.89;100.00;101665.13;5003748;28;20068;-83
2021/10/18 11:15:36;;;;;;;0.20;0.20;;;;;;;11.95;100.00;101671.50;5000404;28;20054;-82
2021/10/18 11:18:09;;;;;;;0.20;0.20;;;;;;;11.89;100.00;101670.56;5003683;28;20058;-82
2021/10/18 11:20:38;;;;;;;0.20;0.20;;;;;;;11.90;100.00;101662.16;4998636;28;20053;-82
2021/10/18 11:23:11;;;;;;;0.20;0.20;;;;;;;12.01;100.00;101670.41;5011584;28;20061;-83
2021/10/18 11:25:46;;;;;;;0.20;0.20;;;;;;;12.10;100.00;101663.38;5006359;28;20046;-83
2021/10/18 11:28:23;;;;;;;0.20;0.20;;;;;;;12.13;100.00;101660.09;5002687;28;20054;-83
2021/10/18 11:31:00;;;;;;;0.20;0.20;;;;;;;12.08;100.00;101665.53;5001869;28;20099;-84
2021/10/18 11:33:33;;;;;;;0.20;0.20;;;;;;;12.17;100.00;101654.94;5015868;28;20496;-81
2021/10/18 11:36:15;;;;;;;0.20;0.20;;;;;;;12.16;100.00;101665.03;4996933;28;20045;-83
2021/10/18 11:38:48;;;;;;;0.20;0.20;;;;;;;12.14;100.00;101663.63;4995250;28;21245;-83
2021/10/18 11:41:17;;;;;;;0.20;0.20;;;;;;;12.18;100.00;101664.75;5011329;28;20617;-85
2021/10/18 11:43:51;;;;;;;0.10;0.10;;;;;;;12.10;100.00;101654.34;4994607;28;20057;-83
2021/10/18 11:46:24;;;;;;;0.20;0.20;;;;;;;12.21;100.00;101654.13;4998668;28;20060;-82
2021/10/18 11:49:07;;;;;;;0.20;0.20;;;;;;;12.32;100.00;101654.16;5001364;28;21448;-82
2021/10/18 11:51:42;;;;;;;0.20;0.20;;;;;;;12.27;100.00;101651.44;5014035;28;21644;-83
2021/10/18 11:54:10;;;;;;;0.30;0.30;;;;;;;12.25;100.00;101657.16;5006998;28;20068;-83
2021/10/18 11:56:44;;;;;;;0.20;0.20;;;;;;;12.19;100.00;101653.59;4994065;28;21661;-84
2021/10/18 11:59:19;;;;;;;0.20;0.20;;;;;;;12.34;100.00;101657.47;5017556;28;20061;-83
2021/10/18 12:01:52;;;;;;;0.20;0.20;;;;;;;12.33;100.00;101655.81;4995300;28;20359;-83
2021/10/18 12:04:25;;;;;;;0.20;0.20;;;;;;;12.29;100.00;101657.44;4997698;28;20050;-82
2021/10/18 12:06:59;;;;;;;0.20;0.20;;;;;;;12.29;100.00;101654.69;4998440;28;20049;-82
2021/10/18 12:09:32;;;;;;;0.20;0.20;;;;;;;12.39;100.00;101657.47;4996037;28;20532;-82
2021/10/18 12:12:12;;;;;;;0.20;0.20;;;;;;;12.28;100.00;101650.31;5012178;28;20068;-83
2021/10/18 12:14:59;;;;;;;0.20;0.20;;;;;;;12.34;100.00;101647.34;4996537;28;20052;-83
2021/10/18 12:17:29;;;;;;;0.20;0.20;;;;;;;12.40;100.00;101649.03;5012608;28;20061;-83
2021/10/18 12:20:02;;;;;;;0.20;0.20;;;;;;;12.36;100.00;101649.81;4998163;28;20050;-84
2021/10/18 12:22:35;;;;;;;0.20;0.20;;;;;;;12.27;100.00;101638.59;5017995;28;20061;-82
2021/10/18 12:25:05;;;;;;;0.15;0.15;;;;;;;12.31;100.00;101634.25;5015630;28;20054;-82
2021/10/18 12:27:33;;;;;;;0.20;0.20;;;;;;;12.41;100.00;101633.44;4990788;28;20053;-83
2021/10/18 12:30:08;;;;;;;0.20;0.20;;;;;;;12.34;100.00;101630.97;4986546;28;20060;-82
2021/10/18 12:32:42;;;;;;;0.20;0.20;;;;;;;12.31;100.00;101620.59;4985463;28;20046;-83
2021/10/18 12:35:19;;;;;;;0.20;0.20;;;;;;;12.31;100.00;101619.78;4993476;28;20050;-84
2021/10/18 12:37:52;;;;;;;0.20;0.20;;;;;;;12.51;100.00;101627.19;4998180;28;20049;-84
2021/10/18 12:40:20;;;;;;;0.20;0.20;;;;;;;12.36;100.00;101634.28;4994206;28;20053;-81
2021/10/18 12:42:49;;;;;;;0.20;0.20;;;;;;;12.29;100.00;101632.88;5002784;28;20053;-82
2021/10/18 12:45:19;;;;;;;0.20;0.20;;;;;;;12.32;100.00;101626.88;5001728;28;20057;-84
2021/10/18 12:47:54;;;;;;;0.20;0.20;;;;;;;12.24;100.00;101625.50;5002710;28;20057;-82
2021/10/18 12:50:29;;;;;;;0.20;0.20;;;;;;;12.26;100.00;101628.75;4997804;28;20054;-82
2021/10/18 12:53:10;;;;;;;0.20;0.20;;;;;;;12.19;100.00;101612.66;5008973;28;20065;-82
2021/10/18 12:55:43;;;;;;;0.20;0.20;;;;;;;12.18;100.00;101624.66;4989823;28;20054;-81
2021/10/18 12:58:18;;;;;;;0.20;0.20;;;;;;;12.24;100.00;101623.56;4992803;28;20058;-82